createdAt,value
2018-08-03T00:00:51.671Z,74.57
2018-08-03T00:05:56.590Z,73.61
2018-08-03T00:11:01.383Z,73.78
2018-08-03T00:16:06.257Z,74.71
2018-08-03T00:21:11.149Z,75.35
2018-08-03T00:26:15.939Z,75.69
2018-08-03T00:31:21.498Z,75.18
2018-08-03T00:36:26.155Z,76.57
2018-08-03T00:41:30.791Z,77.42
2018-08-03T00:46:35.586Z,77.11
2018-08-03T00:51:40.204Z,76.74
2018-08-03T00:56:44.839Z,77.38
2018-08-03T01:01:49.647Z,77.18
2018-08-03T01:06:54.313Z,77.74
2018-08-03T01:11:58.912Z,78.46
2018-08-03T01:17:03.632Z,77.61
2018-08-03T01:22:08.248Z,77.62
2018-08-03T01:27:12.855Z,77.81
2018-08-03T01:32:17.661Z,77.79
2018-08-03T01:37:22.435Z,79.18
2018-08-03T01:42:27.291Z,79.50
2018-08-03T01:47:32.021Z,79.52
2018-08-03T01:52:36.684Z,80.42
2018-08-03T01:57:41.374Z,80.18
2018-08-03T02:02:46.064Z,79.29
2018-08-03T02:07:50.766Z,80.60
2018-08-03T02:12:55.480Z,80.24
2018-08-03T02:18:00.171Z,80.08
2018-08-03T02:23:04.891Z,80.14
2018-08-03T02:28:09.680Z,81.29
2018-08-03T02:33:14.408Z,81.41
2018-08-03T02:38:19.046Z,80.52
2018-08-03T02:43:23.725Z,81.72
2018-08-03T02:48:28.422Z,81.99
2018-08-03T02:53:33.153Z,81.86
2018-08-03T02:58:37.866Z,81.26
2018-08-03T03:03:42.523Z,82.18
2018-08-03T03:08:47.183Z,82.66
2018-08-03T03:13:52.304Z,83.02
2018-08-03T03:18:56.956Z,82.49
2018-08-03T03:24:01.722Z,83.22
2018-08-03T03:29:06.383Z,82.90
2018-08-03T03:34:11.004Z,83.20
2018-08-03T03:39:15.728Z,83.57
2018-08-03T03:44:20.546Z,84.00
2018-08-03T03:49:25.439Z,83.20
2018-08-03T03:54:30.147Z,83.72
2018-08-03T03:59:34.836Z,82.61
2018-08-03T04:04:39.613Z,83.47
2018-08-03T04:09:44.259Z,82.92
2018-08-03T04:14:49.038Z,82.04
2018-08-03T04:19:53.725Z,81.72
2018-08-03T04:24:58.355Z,78.64
2018-08-03T04:30:03.234Z,76.46
2018-08-03T04:35:07.986Z,74.42
2018-08-03T04:40:12.950Z,72.96
2018-08-03T04:45:17.665Z,70.12
2018-08-03T04:50:22.408Z,66.71
2018-08-03T04:55:26.718Z,63.20
2018-08-03T05:00:31.408Z,65.23
2018-08-03T05:05:36.055Z,61.87
2018-08-03T05:10:40.780Z,61.03
2018-08-03T05:15:45.615Z,60.95
2018-08-03T05:20:50.351Z,58.34
2018-08-03T05:25:55.096Z,57.90
2018-08-03T05:30:59.415Z,56.64
2018-08-03T05:36:04.180Z,53.96
2018-08-03T05:41:08.943Z,55.59
2018-08-03T05:46:13.685Z,53.25
2018-08-03T05:51:18.449Z,54.47
2018-08-03T05:56:23.198Z,55.81
2018-08-03T06:01:27.907Z,53.47
2018-08-03T06:06:32.597Z,53.64
2018-08-03T06:11:37.360Z,55.09
2018-08-03T06:16:42.003Z,57.49
2018-08-03T06:21:46.699Z,52.83
2018-08-03T06:26:51.327Z,56.38
2018-08-03T06:31:56.205Z,56.77
2018-08-03T06:37:01.025Z,55.59
2018-08-03T06:42:05.840Z,53.77
2018-08-03T06:47:10.590Z,52.86
2018-08-03T06:52:15.412Z,52.47
2018-08-03T06:57:21.986Z,52.82
2018-08-03T07:02:26.566Z,50.16
2018-08-03T07:07:31.259Z,49.84
2018-08-03T07:12:36.026Z,48.38
2018-08-03T07:17:40.703Z,48.02
2018-08-03T07:22:45.501Z,47.15
2018-08-03T07:27:50.294Z,47.50
2018-08-03T07:32:55.028Z,46.65
2018-08-03T07:37:59.663Z,44.69
2018-08-03T07:43:04.347Z,45.15
2018-08-03T07:48:09.299Z,45.61
2018-08-03T07:53:14.089Z,45.41
2018-08-03T07:58:18.790Z,44.37
2018-08-03T08:03:23.481Z,44.79
2018-08-03T08:08:28.328Z,44.87
2018-08-03T08:13:33.008Z,44.09
2018-08-03T08:18:37.780Z,42.64
2018-08-03T08:23:42.517Z,43.78
2018-08-03T08:28:47.364Z,42.39
2018-08-03T08:33:52.150Z,41.22
2018-08-03T08:38:56.886Z,41.35
2018-08-03T08:44:01.603Z,40.28
2018-08-03T08:49:06.665Z,41.80
2018-08-03T08:54:11.348Z,41.83
2018-08-03T08:59:16.001Z,39.22
2018-08-03T09:04:20.750Z,39.48
2018-08-03T09:09:25.477Z,40.23
2018-08-03T09:14:30.282Z,38.65
2018-08-03T09:19:34.964Z,38.89
2018-08-03T09:24:39.743Z,38.66
2018-08-03T09:29:44.449Z,38.67
2018-08-03T09:34:49.159Z,38.23
2018-08-03T09:39:53.872Z,37.59
2018-08-03T09:44:58.695Z,36.15
2018-08-03T09:50:03.533Z,37.79
2018-08-03T09:55:08.327Z,36.55
2018-08-03T10:00:15.791Z,36.20
2018-08-03T10:05:20.522Z,35.44
2018-08-03T10:10:25.248Z,35.32
2018-08-03T10:15:30.011Z,35.22
2018-08-03T10:20:34.926Z,35.64
2018-08-03T10:25:39.799Z,36.12
2018-08-03T10:30:44.437Z,35.75
2018-08-03T10:35:49.093Z,33.06
2018-08-03T10:40:53.860Z,34.78
2018-08-03T10:45:58.604Z,33.73
2018-08-03T10:51:03.374Z,33.46
2018-08-03T10:56:07.745Z,33.30
2018-08-03T11:01:12.402Z,33.04
2018-08-03T11:06:17.067Z,32.47
2018-08-03T11:11:21.735Z,30.51
2018-08-03T11:16:26.560Z,31.34
2018-08-03T11:21:31.363Z,32.33
2018-08-03T11:26:36.451Z,30.25
2018-08-03T11:31:41.169Z,28.91
2018-08-03T11:36:45.746Z,29.18
2018-08-03T11:41:50.467Z,27.75
2018-08-03T11:46:55.292Z,27.25
2018-08-03T11:52:00.057Z,27.67
2018-08-03T11:57:04.833Z,26.74
2018-08-03T12:02:09.620Z,29.32
2018-08-03T12:07:14.397Z,28.25
2018-08-03T12:12:19.076Z,27.05
2018-08-03T12:17:23.772Z,27.95
2018-08-03T12:22:28.540Z,27.13
2018-08-03T12:27:33.162Z,28.22
2018-08-03T12:32:37.906Z,28.66
2018-08-03T12:37:42.637Z,28.29
2018-08-03T12:42:47.424Z,28.86
2018-08-03T12:47:52.173Z,25.22
2018-08-03T12:52:57.009Z,26.12
2018-08-03T12:58:01.751Z,25.42
2018-08-03T13:03:07.175Z,25.12
2018-08-03T13:08:12.052Z,26.08
2018-08-03T13:13:16.698Z,25.84
2018-08-03T13:18:21.312Z,27.29
2018-08-03T13:23:25.965Z,26.50
2018-08-03T13:28:30.716Z,25.17
2018-08-03T13:33:35.404Z,24.48
2018-08-03T13:38:40.168Z,25.12
2018-08-03T13:43:45.246Z,24.21
2018-08-03T13:48:50.581Z,24.98
2018-08-03T13:53:55.273Z,25.55
2018-08-03T13:58:59.901Z,24.10
2018-08-03T14:04:04.598Z,22.80
2018-08-03T14:09:09.303Z,23.35
2018-08-03T14:14:14.695Z,22.61
2018-08-03T14:19:19.361Z,23.77
2018-08-03T14:24:24.088Z,22.87
2018-08-03T14:29:28.824Z,23.64
2018-08-03T14:34:33.671Z,23.43
2018-08-03T14:39:38.452Z,23.84
2018-08-03T14:44:43.240Z,23.84
2018-08-03T14:49:47.890Z,23.73
2018-08-03T14:54:52.498Z,23.72
2018-08-03T14:59:59.133Z,24.12
2018-08-03T15:05:03.908Z,24.30
2018-08-03T15:10:08.675Z,23.38
2018-08-03T15:15:13.587Z,24.27
2018-08-03T15:20:18.317Z,24.90
2018-08-03T15:25:23.010Z,23.63
2018-08-03T15:30:27.695Z,24.55
2018-08-03T15:35:32.351Z,24.83
2018-08-03T15:40:37.091Z,25.72
2018-08-03T15:45:41.887Z,26.29
2018-08-03T15:50:46.606Z,26.25
2018-08-03T15:55:51.357Z,27.65
2018-08-03T16:00:56.151Z,26.36
2018-08-03T16:06:00.519Z,26.02
2018-08-03T16:11:05.266Z,25.92
2018-08-03T16:16:10.255Z,26.62
2018-08-03T16:21:15.077Z,26.42
2018-08-03T16:26:19.952Z,25.42
2018-08-03T16:31:24.628Z,27.00
2018-08-03T16:36:29.401Z,26.87
2018-08-03T16:41:34.107Z,28.29
2018-08-03T16:46:39.077Z,28.73
2018-08-03T16:51:43.743Z,28.52
2018-08-03T16:56:48.462Z,28.73
2018-08-03T17:01:53.418Z,28.77
2018-08-03T17:06:58.020Z,30.41
2018-08-03T17:12:02.810Z,31.42
2018-08-03T17:17:07.955Z,32.02
2018-08-03T17:22:12.824Z,32.69
2018-08-03T17:27:17.623Z,32.39
2018-08-03T17:32:22.367Z,33.17
2018-08-03T17:37:27.046Z,34.17
2018-08-03T17:42:31.817Z,33.87
2018-08-03T17:47:36.756Z,33.82
2018-08-03T17:52:41.823Z,34.80
2018-08-03T17:57:46.980Z,34.74
2018-08-03T18:02:51.454Z,36.12
2018-08-03T18:07:56.159Z,36.60
2018-08-03T18:13:00.848Z,37.91
2018-08-03T18:18:05.662Z,40.55
2018-08-03T18:23:10.399Z,41.19
2018-08-03T18:28:15.059Z,41.82
2018-08-03T18:33:19.680Z,40.97
2018-08-03T18:38:24.396Z,43.32
2018-08-03T18:43:29.118Z,42.97
2018-08-03T18:48:33.735Z,43.28
2018-08-03T18:53:38.402Z,43.88
2018-08-03T18:58:43.295Z,44.96
2018-08-03T19:03:47.945Z,44.72
2018-08-03T19:08:52.734Z,46.71
2018-08-03T19:13:57.381Z,46.70
2018-08-03T19:19:02.060Z,48.70
2018-08-03T19:24:07.221Z,48.19
2018-08-03T19:29:11.928Z,49.19
2018-08-03T19:34:16.632Z,48.76
2018-08-03T19:39:21.531Z,47.70
2018-08-03T19:44:26.306Z,48.38
2018-08-03T19:49:30.996Z,49.59
2018-08-03T19:54:35.728Z,50.09
2018-08-03T19:59:41.160Z,50.13
2018-08-03T20:04:45.817Z,51.42
2018-08-03T20:09:50.639Z,51.80
2018-08-03T20:14:55.457Z,51.36
2018-08-03T20:20:00.217Z,51.84
2018-08-03T20:25:06.091Z,52.31
2018-08-03T20:30:10.828Z,51.64
2018-08-03T20:35:15.624Z,53.33
2018-08-03T20:40:20.397Z,53.36
2018-08-03T20:45:25.232Z,54.86
2018-08-03T20:50:29.988Z,54.51
2018-08-03T20:55:35.030Z,55.11
2018-08-03T21:00:39.647Z,55.51
2018-08-03T21:05:44.331Z,55.24
2018-08-03T21:10:49.004Z,56.66
2018-08-03T21:15:53.887Z,57.29
2018-08-03T21:20:58.598Z,57.35
2018-08-03T21:26:03.358Z,56.82
2018-08-03T21:31:08.151Z,57.16
2018-08-03T21:36:12.930Z,58.02
2018-08-03T21:41:17.640Z,57.65
2018-08-03T21:46:22.446Z,58.66
2018-08-03T21:51:27.201Z,59.15
2018-08-03T21:56:31.990Z,59.35
2018-08-03T22:01:36.730Z,59.54
2018-08-03T22:06:41.488Z,60.72
2018-08-03T22:11:46.168Z,61.02
2018-08-03T22:16:50.920Z,60.76
2018-08-03T22:21:55.653Z,60.76
2018-08-03T22:27:00.317Z,61.36
2018-08-03T22:32:05.083Z,62.51
2018-08-03T22:37:09.806Z,61.52
2018-08-03T22:42:14.583Z,62.88
2018-08-03T22:47:19.283Z,63.35
2018-08-03T22:52:24.225Z,63.98
2018-08-03T22:57:28.885Z,63.47
2018-08-03T23:02:33.681Z,63.94
2018-08-03T23:07:38.423Z,64.07
2018-08-03T23:12:43.128Z,64.69
2018-08-03T23:17:48.602Z,65.08
2018-08-03T23:22:53.361Z,65.02
2018-08-03T23:27:58.320Z,66.13
2018-08-03T23:33:03.273Z,66.29
2018-08-03T23:38:07.967Z,66.48
2018-08-03T23:43:12.809Z,66.77
2018-08-03T23:48:17.722Z,66.37
2018-08-03T23:53:22.396Z,66.38
2018-08-03T23:58:27.178Z,67.25
